Time;durP1;ratioP1;P1;durP2;ratioP2;P2;SDS_P1;SDS_P2;PMS_P1;PMS_P2;Temp;Humidity;BMP_temperature;BMP_pressure;BME280_temperature;BME280_humidity;BME280_pressure;Samples;Min_cycle;Max_cycle;Signal;HPM_P1;HPM_P2
2022/09/27 00:00:41;;;;;;;36.42;7.35;;;13.60;99.90;;;;;;5071721;28;20055;-61
2022/09/27 00:03:08;;;;;;;33.00;7.53;;;13.60;99.90;;;;;;5071926;28;20406;-60
2022/09/27 00:05:34;;;;;;;33.03;6.93;;;13.60;99.90;;;;;;5071501;28;20032;-60
2022/09/27 00:08:00;;;;;;;37.85;7.93;;;13.40;99.90;;;;;;5071078;28;20027;-61
2022/09/27 00:10:26;;;;;;;29.33;6.97;;;13.30;99.90;;;;;;5054994;28;20031;-60
2022/09/27 00:12:51;;;;;;;31.02;6.82;;;13.30;99.90;;;;;;5071584;28;20659;-61
2022/09/27 00:15:17;;;;;;;33.00;7.15;;;13.30;99.90;;;;;;5071563;28;20044;-61
2022/09/27 00:17:43;;;;;;;30.05;7.22;;;13.20;99.90;;;;;;5071436;28;20039;-60
2022/09/27 00:20:09;;;;;;;36.70;7.43;;;13.10;99.90;;;;;;5071239;28;20051;-60
2022/09/27 00:22:36;;;;;;;42.60;7.88;;;13.10;99.90;;;;;;5071120;28;20505;-61
2022/09/27 00:25:04;;;;;;;31.30;7.30;;;13.10;99.90;;;;;;5071370;28;20108;-60
2022/09/27 00:27:30;;;;;;;30.95;7.38;;;13.10;99.90;;;;;;5071303;28;20036;-60
2022/09/27 00:29:56;;;;;;;39.88;8.25;;;13.10;99.90;;;;;;5071530;28;20021;-61
2022/09/27 00:32:22;;;;;;;32.55;7.55;;;13.10;99.90;;;;;;5071328;28;20440;-60
2022/09/27 00:34:47;;;;;;;30.88;7.70;;;13.20;99.90;;;;;;5071746;28;20016;-60
2022/09/27 00:37:13;;;;;;;30.67;7.22;;;13.20;99.90;;;;;;5070999;28;20296;-61
2022/09/27 00:39:39;;;;;;;28.65;7.13;;;13.30;99.90;;;;;;5071243;28;20039;-61
2022/09/27 00:42:08;;;;;;;31.83;7.30;;;13.30;99.90;;;;;;5071675;28;20032;-61
2022/09/27 00:44:37;;;;;;;32.35;6.95;;;13.30;99.90;;;;;;5071185;28;20024;-61
2022/09/27 00:47:40;;;;;;;29.27;7.03;;;13.30;99.90;;;;;;5071757;28;20085;-62
2022/09/27 00:50:27;;;;;;;34.03;7.38;;;13.30;99.90;;;;;;5074694;28;20033;-61
2022/09/27 00:53:09;;;;;;;31.40;6.95;;;13.20;99.90;;;;;;5074949;28;20047;-61
2022/09/27 00:55:54;;;;;;;32.92;7.35;;;13.20;99.90;;;;;;5074689;28;20029;-61
2022/09/27 00:58:26;;;;;;;35.70;7.40;;;13.20;99.90;;;;;;5074884;28;20029;-62
2022/09/27 01:00:57;;;;;;;35.35;7.20;;;13.10;99.90;;;;;;5074594;28;20032;-62
2022/09/27 01:03:38;;;;;;;39.67;7.55;;;13.00;99.90;;;;;;5074493;28;20021;-61
2022/09/27 01:06:06;;;;;;;35.83;6.72;;;13.00;99.90;;;;;;5074066;28;20033;-61
2022/09/27 01:08:32;;;;;;;36.78;8.05;;;13.00;99.90;;;;;;5074839;28;20024;-62
2022/09/27 01:11:11;;;;;;;28.83;7.38;;;13.00;99.90;;;;;;5074682;28;20024;-61
2022/09/27 01:14:01;;;;;;;32.40;6.82;;;13.00;99.90;;;;;;5074660;28;20071;-62
2022/09/27 01:16:49;;;;;;;32.47;7.22;;;13.00;99.90;;;;;;5074364;28;20048;-61
2022/09/27 01:19:25;;;;;;;34.13;7.70;;;13.00;99.90;;;;;;5074698;28;20020;-61
2022/09/27 01:22:00;;;;;;;28.95;6.22;;;13.00;99.90;;;;;;5074348;28;20372;-61
2022/09/27 01:24:51;;;;;;;32.55;7.30;;;12.90;99.90;;;;;;5074981;28;20074;-60
2022/09/27 01:27:50;;;;;;;33.42;6.93;;;12.90;99.90;;;;;;5074808;28;20028;-61
2022/09/27 01:30:21;;;;;;;32.65;6.90;;;12.90;99.90;;;;;;5074876;28;20029;-60
2022/09/27 01:33:07;;;;;;;26.63;6.50;;;12.80;99.90;;;;;;5073923;28;20024;-61
2022/09/27 01:35:51;;;;;;;27.75;6.45;;;12.80;99.90;;;;;;5074502;28;20025;-62
2022/09/27 01:38:33;;;;;;;29.27;6.75;;;12.70;99.90;;;;;;5074624;28;20498;-62
2022/09/27 01:41:21;;;;;;;26.85;5.97;;;12.70;99.90;;;;;;5074100;28;20108;-61
2022/09/27 01:44:21;;;;;;;28.92;7.13;;;12.60;99.90;;;;;;5074276;28;20028;-61
2022/09/27 01:47:00;;;;;;;23.10;6.13;;;12.60;99.90;;;;;;5074052;28;20066;-62
2022/09/27 01:49:42;;;;;;;26.73;7.07;;;12.50;99.90;;;;;;5074400;28;20024;-61
2022/09/27 01:52:11;;;;;;;29.85;7.03;;;12.50;99.90;;;;;;5073791;28;20059;-61
2022/09/27 01:54:42;;;;;;;29.00;6.45;;;12.40;99.90;;;;;;5074232;28;20017;-61
2022/09/27 01:57:12;;;;;;;33.72;6.85;;;12.50;99.90;;;;;;5073827;28;20029;-61
2022/09/27 02:00:13;;;;;;;33.72;6.47;;;12.50;99.90;;;;;;5073822;28;20031;-61
2022/09/27 02:02:46;;;;;;;30.38;6.22;;;12.50;99.90;;;;;;5060016;28;20041;-61
2022/09/27 02:05:16;;;;;;;33.72;6.55;;;12.40;99.90;;;;;;5073610;28;20042;-62
2022/09/27 02:07:56;;;;;;;34.03;6.60;;;12.50;99.90;;;;;;5073719;28;20514;-61
2022/09/27 02:10:31;;;;;;;24.42;5.65;;;12.50;99.90;;;;;;5073947;28;20017;-61
2022/09/27 02:13:06;;;;;;;33.60;6.35;;;12.50;99.90;;;;;;5073526;28;20028;-61
2022/09/27 02:15:46;;;;;;;27.33;5.75;;;12.50;99.90;;;;;;5073101;28;20052;-61
2022/09/27 02:18:21;;;;;;;23.58;5.55;;;12.50;99.90;;;;;;5073135;28;20027;-61
2022/09/27 02:20:59;;;;;;;32.72;6.47;;;12.50;99.90;;;;;;5073131;28;20024;-61
2022/09/27 02:23:31;;;;;;;39.28;7.20;;;12.50;99.90;;;;;;5073668;28;20375;-62
2022/09/27 02:26:10;;;;;;;27.42;6.10;;;12.40;99.90;;;;;;5071794;28;20419;-62
2022/09/27 02:28:51;;;;;;;28.20;5.90;;;12.40;99.90;;;;;;5073159;28;20020;-62
2022/09/27 02:31:16;;;;;;;23.90;5.88;;;12.40;99.90;;;;;;5072771;28;20021;-61
2022/09/27 02:34:11;;;;;;;21.48;5.35;;;12.40;99.90;;;;;;5073034;28;20035;-61
2022/09/27 02:36:37;;;;;;;20.52;5.05;;;12.50;99.90;;;;;;5072974;28;20074;-61
2022/09/27 02:39:03;;;;;;;20.33;4.95;;;12.50;99.90;;;;;;5073297;28;20379;-61
2022/09/27 02:41:29;;;;;;;27.77;6.30;;;12.50;99.90;;;;;;5073285;28;20055;-61
2022/09/27 02:43:58;;;;;;;24.25;5.38;;;12.60;99.90;;;;;;5072586;28;20052;-61
2022/09/27 02:46:48;;;;;;;27.83;6.28;;;12.60;99.90;;;;;;5072863;28;20238;-61
2022/09/27 02:49:23;;;;;;;21.77;5.30;;;12.70;99.90;;;;;;5072999;28;20441;-61
2022/09/27 02:52:25;;;;;;;21.38;5.32;;;12.70;99.90;;;;;;5072917;28;20047;-61
2022/09/27 02:55:38;;;;;;;21.33;5.00;;;12.70;99.90;;;;;;5072629;28;20036;-61
2022/09/27 02:58:16;;;;;;;27.65;6.05;;;12.70;99.90;;;;;;5010761;28;20038;-61
2022/09/27 03:00:57;;;;;;;22.58;5.57;;;12.70;99.90;;;;;;5010337;28;20038;-62
2022/09/27 03:03:45;;;;;;;25.38;6.20;;;12.70;99.90;;;;;;5011135;28;20021;-61
2022/09/27 03:06:14;;;;;;;18.67;5.10;;;12.60;99.90;;;;;;5010584;28;20072;-61
2022/09/27 03:08:40;;;;;;;21.08;4.80;;;12.60;99.90;;;;;;5010249;28;20554;-62
2022/09/27 03:11:06;;;;;;;22.48;5.63;;;12.60;99.90;;;;;;5009896;28;20488;-62
2022/09/27 03:13:33;;;;;;;24.30;5.50;;;12.50;99.90;;;;;;5010438;28;20088;-62
2022/09/27 03:15:59;;;;;;;22.85;5.28;;;12.50;99.90;;;;;;5009778;28;20591;-62
2022/09/27 03:18:25;;;;;;;24.27;5.40;;;12.50;99.90;;;;;;5011066;28;20120;-61
2022/09/27 03:20:53;;;;;;;23.50;5.65;;;12.50;99.90;;;;;;5010270;28;20048;-61
2022/09/27 03:23:19;;;;;;;24.40;5.40;;;12.40;99.90;;;;;;5010509;28;20173;-61
2022/09/27 03:25:45;;;;;;;24.83;5.30;;;12.40;99.90;;;;;;5010230;28;20045;-61
2022/09/27 03:28:11;;;;;;;24.98;5.88;;;12.40;99.90;;;;;;5010938;28;20393;-61
2022/09/27 03:30:37;;;;;;;22.23;5.32;;;12.40;99.90;;;;;;5009726;28;20030;-62
2022/09/27 03:33:03;;;;;;;22.33;5.18;;;12.30;99.90;;;;;;5052235;28;20063;-61
2022/09/27 03:35:29;;;;;;;26.65;5.70;;;12.30;99.90;;;;;;5052268;28;20156;-61
2022/09/27 03:37:54;;;;;;;25.73;5.78;;;12.30;99.90;;;;;;5051904;28;20170;-61
2022/09/27 03:40:20;;;;;;;18.90;4.90;;;12.40;99.90;;;;;;5051927;28;20021;-61
2022/09/27 03:42:48;;;;;;;24.42;5.20;;;12.40;99.90;;;;;;5051914;28;20025;-61
2022/09/27 03:45:14;;;;;;;21.10;5.07;;;12.40;99.90;;;;;;5051595;28;20066;-61
2022/09/27 03:47:40;;;;;;;22.25;4.93;;;12.40;99.90;;;;;;5051847;28;20029;-61
2022/09/27 03:50:07;;;;;;;25.40;5.85;;;12.40;99.90;;;;;;5051756;28;20395;-62
2022/09/27 03:52:33;;;;;;;20.52;5.32;;;12.50;99.90;;;;;;5050812;28;20395;-61
2022/09/27 03:54:59;;;;;;;22.15;5.07;;;12.40;99.90;;;;;;5051496;28;20039;-61
2022/09/27 03:57:25;;;;;;;25.80;5.35;;;12.50;99.90;;;;;;5052104;28;20025;-61
2022/09/27 03:59:50;;;;;;;21.08;4.85;;;12.50;99.90;;;;;;5051582;28;20040;-61
2022/09/27 04:02:16;;;;;;;21.60;4.93;;;12.50;99.90;;;;;;5051713;28;20025;-61
2022/09/27 04:04:42;;;;;;;24.00;4.78;;;12.50;99.90;;;;;;5051908;28;20056;-61
2022/09/27 04:07:08;;;;;;;24.90;4.97;;;12.50;99.90;;;;;;5051447;28;20032;-61
2022/09/27 04:09:36;;;;;;;21.73;5.53;;;12.50;99.90;;;;;;5064021;28;20036;-61
2022/09/27 04:12:02;;;;;;;25.83;4.95;;;12.50;99.90;;;;;;5071482;28;20099;-61
2022/09/27 04:14:28;;;;;;;25.45;5.63;;;12.50;99.90;;;;;;5071304;28;20021;-61
2022/09/27 04:16:54;;;;;;;20.67;5.20;;;12.50;99.90;;;;;;5071420;28;20476;-62
2022/09/27 04:19:20;;;;;;;18.48;5.03;;;12.40;99.90;;;;;;5071537;28;20033;-61
2022/09/27 04:21:45;;;;;;;24.02;4.72;;;12.50;99.90;;;;;;5072972;28;20028;-61
2022/09/27 04:24:11;;;;;;;22.70;4.90;;;12.50;99.90;;;;;;5075546;28;20104;-61
2022/09/27 04:26:38;;;;;;;22.33;4.90;;;12.50;99.90;;;;;;5075568;28;20076;-61
2022/09/27 04:29:05;;;;;;;20.60;4.95;;;12.50;99.90;;;;;;5075212;28;20028;-61
2022/09/27 04:31:30;;;;;;;17.85;4.53;;;12.50;99.90;;;;;;5075889;28;20044;-61
2022/09/27 04:33:57;;;;;;;16.48;3.85;;;12.50;99.90;;;;;;5075182;28;20104;-61
2022/09/27 04:36:25;;;;;;;22.38;4.43;;;12.50;99.90;;;;;;5075427;28;20376;-61
2022/09/27 04:38:52;;;;;;;23.00;4.28;;;12.60;99.90;;;;;;5075224;28;20052;-61
2022/09/27 04:41:18;;;;;;;23.60;4.53;;;12.50;99.90;;;;;;5075184;28;20032;-61
2022/09/27 04:43:44;;;;;;;20.02;4.22;;;12.60;99.90;;;;;;5075367;28;20029;-61
2022/09/27 04:46:09;;;;;;;19.33;4.10;;;12.60;99.90;;;;;;5075564;28;20249;-61
2022/09/27 04:48:36;;;;;;;18.17;4.32;;;12.50;99.90;;;;;;5075042;28;20028;-61
2022/09/27 04:51:02;;;;;;;18.83;4.22;;;12.50;99.90;;;;;;5075030;28;20116;-61
2022/09/27 04:53:29;;;;;;;26.98;4.60;;;12.60;99.90;;;;;;5075015;28;20099;-61
2022/09/27 04:55:55;;;;;;;13.80;3.47;;;12.60;99.90;;;;;;5074745;28;20040;-61
2022/09/27 04:58:22;;;;;;;19.13;4.50;;;12.70;99.90;;;;;;5074631;28;20031;-61
2022/09/27 05:00:50;;;;;;;17.60;4.00;;;12.70;99.90;;;;;;5075332;28;20028;-61
2022/09/27 05:03:16;;;;;;;24.02;4.75;;;12.70;99.90;;;;;;5074668;28;20521;-61
2022/09/27 05:05:41;;;;;;;23.23;4.30;;;12.60;99.90;;;;;;5075053;28;20028;-61
2022/09/27 05:08:07;;;;;;;21.85;4.05;;;12.60;99.90;;;;;;5074506;28;20032;-61
2022/09/27 05:10:33;;;;;;;18.17;3.80;;;12.50;99.90;;;;;;5073912;28;20025;-62
2022/09/27 05:12:58;;;;;;;17.80;3.78;;;12.50;99.90;;;;;;5074767;28;20046;-62
2022/09/27 05:15:24;;;;;;;20.10;3.70;;;12.40;99.90;;;;;;5074762;28;20043;-62
2022/09/27 05:17:51;;;;;;;19.80;3.88;;;12.40;99.90;;;;;;5074813;28;20025;-61
2022/09/27 05:20:18;;;;;;;20.02;4.05;;;12.40;99.90;;;;;;5074369;28;20025;-61
2022/09/27 05:22:44;;;;;;;20.00;3.92;;;12.30;99.90;;;;;;5074123;28;20060;-61
2022/09/27 05:25:10;;;;;;;14.52;3.70;;;12.30;99.90;;;;;;5072739;28;20109;-61
2022/09/27 05:27:35;;;;;;;15.63;4.30;;;12.40;99.90;;;;;;5074643;28;20032;-61
2022/09/27 05:30:01;;;;;;;13.88;3.97;;;12.40;99.90;;;;;;5074348;28;20107;-61
2022/09/27 05:32:28;;;;;;;22.38;3.88;;;12.40;99.90;;;;;;5074167;28;20383;-61
2022/09/27 05:34:54;;;;;;;23.52;4.20;;;12.40;99.90;;;;;;5054334;28;20017;-61
2022/09/27 05:37:19;;;;;;;19.15;4.13;;;12.40;99.90;;;;;;5054476;28;20032;-61
2022/09/27 05:39:45;;;;;;;19.55;4.25;;;12.60;99.90;;;;;;5054309;28;20422;-61
2022/09/27 05:42:14;;;;;;;14.05;3.58;;;12.60;99.90;;;;;;5054320;28;20029;-61
2022/09/27 05:44:40;;;;;;;24.30;5.38;;;12.60;99.90;;;;;;5054319;28;20022;-61
2022/09/27 05:47:07;;;;;;;17.40;3.60;;;12.60;99.90;;;;;;5054165;28;20028;-61
2022/09/27 05:49:33;;;;;;;19.35;3.85;;;12.60;99.90;;;;;;5054716;28;20055;-61
2022/09/27 05:51:59;;;;;;;17.05;3.88;;;12.60;99.90;;;;;;5052766;28;20049;-61
2022/09/27 05:54:26;;;;;;;19.85;3.92;;;12.60;99.90;;;;;;5053897;28;20025;-61
2022/09/27 05:56:57;;;;;;;18.80;3.70;;;12.60;99.90;;;;;;5054206;28;20032;-61
2022/09/27 05:59:26;;;;;;;18.85;4.13;;;12.60;99.90;;;;;;5054413;28;20021;-61
2022/09/27 06:01:52;;;;;;;20.27;4.95;;;12.60;99.90;;;;;;5054024;28;20029;-62
2022/09/27 06:04:20;;;;;;;23.15;6.40;;;12.50;99.90;;;;;;5053990;28;20017;-61
2022/09/27 06:06:46;;;;;;;21.73;4.45;;;12.50;99.90;;;;;;5053666;28;20506;-61
2022/09/27 06:09:14;;;;;;;22.75;5.32;;;12.50;99.90;;;;;;5063144;28;20013;-61
2022/09/27 06:11:44;;;;;;;21.58;4.43;;;12.40;99.90;;;;;;5073570;28;20036;-61
2022/09/27 06:14:10;;;;;;;26.50;5.18;;;12.40;99.90;;;;;;5073745;28;20111;-61
2022/09/27 06:16:36;;;;;;;24.45;4.38;;;12.40;99.90;;;;;;5073803;28;20055;-62
2022/09/27 06:19:03;;;;;;;19.42;4.18;;;12.50;99.90;;;;;;5073741;28;20024;-62
2022/09/27 06:21:30;;;;;;;12.05;3.33;;;12.60;99.90;;;;;;5072189;28;20041;-62
2022/09/27 06:23:58;;;;;;;15.82;3.83;;;12.60;99.90;;;;;;5073175;28;20425;-61
2022/09/27 06:26:26;;;;;;;16.98;3.80;;;12.70;99.90;;;;;;5073855;28;20380;-61
2022/09/27 06:28:52;;;;;;;18.50;4.35;;;12.80;99.90;;;;;;5073491;28;20075;-62
2022/09/27 06:31:18;;;;;;;19.88;4.13;;;12.80;99.90;;;;;;5073394;28;20060;-62
2022/09/27 06:33:44;;;;;;;14.70;3.83;;;12.90;99.90;;;;;;5073623;28;20483;-61
2022/09/27 06:36:10;;;;;;;19.23;4.38;;;12.90;99.90;;;;;;5073171;28;20033;-62
2022/09/27 06:38:36;;;;;;;22.27;5.05;;;12.90;99.90;;;;;;5072893;28;20017;-61
2022/09/27 06:41:05;;;;;;;21.15;4.97;;;12.90;99.90;;;;;;5073239;28;20082;-61
2022/09/27 06:43:32;;;;;;;21.27;4.22;;;12.80;99.90;;;;;;5073357;28;20116;-62
2022/09/27 06:46:06;;;;;;;23.85;5.38;;;12.90;99.90;;;;;;5072116;28;20113;-62
2022/09/27 06:48:32;;;;;;;19.70;5.03;;;12.90;99.90;;;;;;5073555;28;20032;-61
2022/09/27 06:50:58;;;;;;;17.88;4.35;;;12.90;99.90;;;;;;5073008;28;20031;-62
2022/09/27 06:53:25;;;;;;;19.40;4.00;;;12.80;99.90;;;;;;5072623;28;20085;-61
2022/09/27 06:55:51;;;;;;;21.98;4.07;;;12.90;99.90;;;;;;5072896;28;20095;-62
2022/09/27 07:01:02;;;;;;;15.68;4.88;;;13.40;99.90;;;;;;5072847;28;20097;-62
2022/09/27 07:03:33;;;;;;;17.80;4.35;;;13.70;99.90;;;;;;5072526;28;20025;-60
2022/09/27 07:06:01;;;;;;;18.02;4.07;;;13.60;99.90;;;;;;5072594;28;20063;-60
2022/09/27 07:08:28;;;;;;;18.92;4.40;;;13.60;99.90;;;;;;5071928;28;20051;-62
2022/09/27 07:11:05;;;;;;;17.10;4.00;;;13.60;99.90;;;;;;5072069;28;20161;-62
2022/09/27 07:13:33;;;;;;;18.88;4.30;;;13.70;99.90;;;;;;5073098;28;20506;-61
2022/09/27 07:16:00;;;;;;;15.63;3.75;;;13.80;99.90;;;;;;5072490;28;20048;-62
2022/09/27 07:18:26;;;;;;;20.35;4.60;;;13.90;99.90;;;;;;5073138;28;20072;-62
2022/09/27 07:20:52;;;;;;;15.75;3.95;;;13.80;99.90;;;;;;5072017;28;20024;-62
2022/09/27 07:23:19;;;;;;;13.68;4.72;;;13.90;99.90;;;;;;5071768;28;20029;-62
2022/09/27 07:25:46;;;;;;;14.07;4.00;;;14.00;99.90;;;;;;5072309;28;20037;-62
2022/09/27 07:28:16;;;;;;;14.45;3.60;;;14.10;99.90;;;;;;5072202;28;20020;-62
2022/09/27 07:30:43;;;;;;;17.60;4.00;;;14.10;99.90;;;;;;5072948;28;20020;-62
2022/09/27 07:33:10;;;;;;;12.35;3.35;;;14.30;99.90;;;;;;5072418;28;20107;-61
2022/09/27 07:35:39;;;;;;;15.02;3.97;;;14.40;99.90;;;;;;5071876;28;20044;-62
2022/09/27 07:38:07;;;;;;;17.08;3.60;;;14.70;99.90;;;;;;5072412;28;20032;-62
2022/09/27 07:40:35;;;;;;;12.82;3.10;;;17.40;99.90;;;;;;5072356;28;20103;-62
2022/09/27 07:43:01;;;;;;;14.98;3.75;;;16.50;99.90;;;;;;5072761;28;20028;-62
2022/09/27 07:45:27;;;;;;;17.00;3.30;;;18.90;99.90;;;;;;5072112;28;20032;-61
2022/09/27 07:47:53;;;;;;;16.70;3.40;;;19.30;99.90;;;;;;5072004;28;20086;-62
2022/09/27 07:50:19;;;;;;;13.68;3.50;;;19.60;99.90;;;;;;5071773;28;20025;-62
2022/09/27 07:52:51;;;;;;;10.93;3.25;;;23.30;99.90;;;;;;5072025;28;20049;-62
2022/09/27 07:55:18;;;;;;;14.70;3.85;;;24.60;99.90;;;;;;5072277;28;20025;-62
2022/09/27 07:57:44;;;;;;;13.57;4.55;;;23.50;99.90;;;;;;5071674;28;20104;-62
2022/09/27 08:00:13;;;;;;;11.77;4.10;;;25.50;99.90;;;;;;5071860;28;20031;-63
2022/09/27 08:02:40;;;;;;;12.95;3.65;;;27.00;99.90;;;;;;5071536;28;20028;-62
2022/09/27 08:05:07;;;;;;;11.10;3.13;;;27.70;99.90;;;;;;5071818;28;20143;-60
2022/09/27 08:07:32;;;;;;;11.80;3.30;;;26.40;99.70;;;;;;5071785;28;20036;-61
2022/09/27 08:09:58;;;;;;;10.73;3.15;;;23.90;99.90;;;;;;5071683;28;20025;-61
2022/09/27 08:12:24;;;;;;;11.65;3.03;;;22.30;99.90;;;;;;5071732;28;20036;-61
2022/09/27 08:14:51;;;;;;;8.63;2.75;;;20.40;99.90;;;;;;5071702;28;20028;-62
2022/09/27 08:17:18;;;;;;;9.52;2.78;;;20.30;99.90;;;;;;5070900;28;20056;-61
2022/09/27 08:19:44;;;;;;;8.40;2.60;;;20.00;99.90;;;;;;5071007;28;20394;-61
2022/09/27 08:22:15;;;;;;;10.63;2.50;;;19.70;99.90;;;;;;5071705;28;20020;-61
2022/09/27 08:24:41;;;;;;;9.70;2.53;;;19.20;99.90;;;;;;5071426;28;20028;-62
2022/09/27 08:27:07;;;;;;;11.18;2.80;;;19.50;99.90;;;;;;5071084;28;20071;-60
2022/09/27 08:29:36;;;;;;;11.57;2.78;;;19.10;99.90;;;;;;5072045;28;20025;-60
2022/09/27 08:32:02;;;;;;;13.23;2.75;;;18.90;99.90;;;;;;5071534;28;20025;-61
2022/09/27 08:34:28;;;;;;;9.43;2.53;;;19.20;99.90;;;;;;5071188;28;20371;-61
2022/09/27 08:36:54;;;;;;;6.72;2.28;;;19.60;99.90;;;;;;5071539;28;20031;-62
2022/09/27 08:39:21;;;;;;;10.90;2.35;;;21.90;99.90;;;;;;5071257;28;20040;-62
2022/09/27 08:42:13;;;;;;;11.40;2.50;;;21.30;99.90;;;;;;5072024;28;20017;-62
2022/09/27 08:44:56;;;;;;;10.38;2.88;;;22.80;99.90;;;;;;5071758;28;20036;-62
2022/09/27 08:47:31;;;;;;;8.57;2.28;;;21.00;99.90;;;;;;5071115;28;20398;-62
2022/09/27 08:50:01;;;;;;;10.10;2.47;;;21.10;99.90;;;;;;5070857;28;20069;-62
2022/09/27 08:52:54;;;;;;;7.05;1.90;;;20.00;99.90;;;;;;5071587;28;20020;-62
2022/09/27 08:55:38;;;;;;;9.93;2.67;;;19.20;99.90;;;;;;5063194;28;20115;-62
2022/09/27 08:58:20;;;;;;;8.32;2.22;;;18.70;99.90;;;;;;5071370;28;20025;-62
2022/09/27 09:00:50;;;;;;;7.95;2.60;;;18.40;99.90;;;;;;5071301;28;20025;-62
2022/09/27 09:03:19;;;;;;;10.82;2.50;;;18.70;99.90;;;;;;5071051;28;20028;-62
2022/09/27 09:06:13;;;;;;;11.05;2.75;;;18.80;99.90;;;;;;5071299;28;20078;-64
2022/09/27 09:08:57;;;;;;;9.30;2.28;;;18.60;99.90;;;;;;5070301;28;20032;-64
2022/09/27 09:15:14;;;;;;;6.80;2.10;;;18.20;99.90;;;;;;5012937;28;20369;-64
2022/09/27 09:17:46;;;;;;;9.07;2.00;;;17.90;99.90;;;;;;5012702;28;20121;-64
2022/09/27 09:20:39;;;;;;;7.57;2.08;;;17.90;99.90;;;;;;5011761;28;20088;-62
2022/09/27 09:23:40;;;;;;;7.15;2.22;;;17.40;99.90;;;;;;5012107;28;20034;-64
2022/09/27 09:26:45;;;;;;;10.57;2.30;;;17.50;99.90;;;;;;5011322;28;20128;-64
2022/09/27 09:29:49;;;;;;;8.85;2.13;;;18.10;99.90;;;;;;4991905;28;20049;-63
2022/09/27 09:32:38;;;;;;;7.70;2.15;;;18.40;99.90;;;;;;5012008;28;20048;-63
2022/09/27 09:35:16;;;;;;;7.78;2.00;;;18.80;99.90;;;;;;4999746;28;20432;-62
2022/09/27 09:37:47;;;;;;;5.15;2.03;;;18.80;99.90;;;;;;5012741;28;20034;-62
2022/09/27 09:40:19;;;;;;;8.63;2.25;;;19.70;99.90;;;;;;5012949;28;20034;-62
2022/09/27 09:43:01;;;;;;;9.38;2.17;;;20.00;99.90;;;;;;5012402;28;20053;-62
2022/09/27 09:45:29;;;;;;;9.35;2.67;;;19.90;99.90;;;;;;5012281;28;20389;-62
2022/09/27 09:48:24;;;;;;;9.68;2.40;;;21.70;99.90;;;;;;5011994;28;20038;-63
2022/09/27 09:50:58;;;;;;;10.93;2.58;;;22.80;99.90;;;;;;5029962;28;20071;-63
2022/09/27 09:53:38;;;;;;;11.10;2.20;;;23.50;99.90;;;;;;5074396;28;20542;-63
2022/09/27 09:56:24;;;;;;;7.53;2.20;;;25.20;99.90;;;;;;5070160;28;20087;-63
2022/09/27 09:59:01;;;;;;;6.72;2.20;;;28.40;99.90;;;;;;5071405;28;20025;-62
2022/09/27 10:01:41;;;;;;;8.13;2.13;;;28.70;99.80;;;;;;5073500;28;20038;-63
2022/09/27 10:04:17;;;;;;;4.47;1.73;;;28.40;99.50;;;;;;5074445;28;20028;-64
2022/09/27 10:06:43;;;;;;;6.30;1.90;;;27.50;99.70;;;;;;5073939;28;20024;-62
2022/09/27 10:09:13;;;;;;;5.15;1.70;;;30.60;96.90;;;;;;5073616;28;20035;-64
2022/09/27 10:11:41;;;;;;;9.30;2.22;;;27.10;98.10;;;;;;5073727;28;20104;-63
2022/09/27 10:14:16;;;;;;;5.40;2.05;;;25.60;99.90;;;;;;5074010;28;20012;-64
2022/09/27 10:16:47;;;;;;;17.27;2.38;;;25.50;99.60;;;;;;5073546;28;20423;-64
2022/09/27 10:19:16;;;;;;;4.25;2.10;;;23.70;99.40;;;;;;5073392;28;20028;-63
2022/09/27 10:21:45;;;;;;;6.53;2.20;;;24.20;99.90;;;;;;5073566;28;20448;-63
2022/09/27 10:24:16;;;;;;;7.95;1.80;;;24.80;99.90;;;;;;5073875;28;20154;-64
2022/09/27 10:26:44;;;;;;;9.02;2.28;;;24.90;99.80;;;;;;5073493;28;20453;-64
2022/09/27 10:29:18;;;;;;;10.10;2.50;;;23.70;99.90;;;;;;5073614;28;20031;-63
2022/09/27 10:31:47;;;;;;;8.20;2.30;;;22.30;99.90;;;;;;5073147;28;20033;-64
2022/09/27 10:34:36;;;;;;;9.02;2.35;;;23.10;99.90;;;;;;5073377;28;20020;-65
2022/09/27 10:37:14;;;;;;;8.50;2.30;;;23.60;99.90;;;;;;5073408;28;20078;-63
2022/09/27 10:39:40;;;;;;;5.90;2.10;;;23.20;99.90;;;;;;5073239;28;20021;-66
2022/09/27 10:42:24;;;;;;;8.57;2.55;;;22.30;99.90;;;;;;5072996;28;20032;-63
2022/09/27 10:44:49;;;;;;;6.88;2.50;;;22.10;99.90;;;;;;5072428;28;20043;-65
2022/09/27 10:47:22;;;;;;;12.85;3.40;;;21.70;99.90;;;;;;5072050;28;20510;-64
2022/09/27 10:49:52;;;;;;;11.95;2.80;;;21.00;99.90;;;;;;5072684;28;20031;-65
2022/09/27 10:52:21;;;;;;;11.18;3.25;;;21.90;99.90;;;;;;5072811;28;20104;-65
2022/09/27 10:55:06;;;;;;;9.43;2.88;;;22.00;99.90;;;;;;5072060;28;20020;-65
2022/09/27 10:57:32;;;;;;;12.63;3.53;;;21.30;99.90;;;;;;5071216;28;20490;-65
2022/09/27 11:00:06;;;;;;;11.65;2.83;;;21.60;99.90;;;;;;5072025;28;20059;-64
2022/09/27 11:02:36;;;;;;;14.23;3.70;;;22.00;99.90;;;;;;5072071;28;20032;-63
2022/09/27 11:05:13;;;;;;;10.18;3.03;;;22.50;99.90;;;;;;5072358;28;20067;-65
2022/09/27 11:07:53;;;;;;;11.43;3.15;;;22.80;99.90;;;;;;5071533;28;20032;-63
2022/09/27 11:10:30;;;;;;;12.57;3.25;;;21.20;99.90;;;;;;5072410;28;20036;-64
2022/09/27 11:13:18;;;;;;;11.75;3.28;;;21.10;99.90;;;;;;5072516;28;20109;-63
2022/09/27 11:15:58;;;;;;;15.48;3.83;;;20.80;99.90;;;;;;5072835;28;20372;-63
2022/09/27 11:18:54;;;;;;;13.55;3.22;;;19.90;99.90;;;;;;5072697;28;20391;-63
2022/09/27 11:21:44;;;;;;;13.68;3.40;;;19.90;99.90;;;;;;5059455;28;20032;-63
2022/09/27 11:24:18;;;;;;;11.00;3.10;;;20.30;99.90;;;;;;5072143;28;20029;-63
2022/09/27 11:26:59;;;;;;;15.23;3.70;;;20.70;99.90;;;;;;5072651;28;20064;-62
2022/09/27 11:29:59;;;;;;;16.55;3.92;;;20.50;99.90;;;;;;5072091;28;20033;-63
2022/09/27 11:32:36;;;;;;;11.85;3.28;;;20.50;99.90;;;;;;5072045;28;20024;-64
2022/09/27 11:35:25;;;;;;;14.23;3.67;;;19.90;99.90;;;;;;5072167;28;20031;-63
2022/09/27 11:38:09;;;;;;;14.35;3.83;;;19.90;99.90;;;;;;5072230;28;20494;-63
2022/09/27 11:40:59;;;;;;;12.70;3.85;;;19.40;99.90;;;;;;5072152;28;20082;-63
2022/09/27 11:43:42;;;;;;;14.93;3.67;;;19.70;99.90;;;;;;5072204;28;20040;-63
2022/09/27 11:46:32;;;;;;;15.18;3.63;;;19.70;99.90;;;;;;5072055;28;20040;-64
2022/09/27 11:49:09;;;;;;;14.00;3.63;;;21.20;99.90;;;;;;5064403;28;20081;-63
2022/09/27 11:51:53;;;;;;;16.02;3.63;;;21.50;99.90;;;;;;5071997;28;20063;-63
2022/09/27 11:54:44;;;;;;;15.82;3.90;;;21.10;99.90;;;;;;5072002;28;20126;-63
2022/09/27 11:57:25;;;;;;;13.13;3.58;;;21.20;99.90;;;;;;5071999;28;20024;-64
2022/09/27 12:00:07;;;;;;;15.82;3.85;;;21.60;99.90;;;;;;5071666;28;20029;-64
2022/09/27 12:02:36;;;;;;;14.18;3.70;;;21.60;99.90;;;;;;5071868;28;20025;-64
2022/09/27 12:05:19;;;;;;;12.35;3.13;;;21.40;99.90;;;;;;5071794;28;20035;-64
2022/09/27 12:08:04;;;;;;;11.57;3.10;;;21.40;99.90;;;;;;5071812;28;20047;-64
2022/09/27 12:10:30;;;;;;;12.35;3.40;;;21.80;99.90;;;;;;5071888;28;20402;-64
2022/09/27 12:12:58;;;;;;;12.77;3.38;;;21.60;99.90;;;;;;5071286;28;20150;-64
2022/09/27 12:15:29;;;;;;;9.50;3.10;;;21.50;99.90;;;;;;5071526;28;20033;-64
2022/09/27 12:18:08;;;;;;;11.98;3.20;;;21.20;99.90;;;;;;5071589;28;20032;-64
2022/09/27 12:20:36;;;;;;;12.88;3.17;;;21.10;99.90;;;;;;5070885;28;20020;-64
2022/09/27 12:23:06;;;;;;;12.13;3.58;;;21.10;99.90;;;;;;5071768;28;20063;-63
2022/09/27 12:25:37;;;;;;;13.98;3.70;;;21.00;99.90;;;;;;5069798;28;20490;-64
2022/09/27 12:28:21;;;;;;;13.80;3.33;;;21.50;99.90;;;;;;5071580;28;20043;-64
2022/09/27 12:30:58;;;;;;;13.82;3.70;;;21.40;99.90;;;;;;5071596;28;20031;-64
2022/09/27 12:33:37;;;;;;;14.48;3.70;;;21.20;99.90;;;;;;5071752;28;20371;-64
2022/09/27 12:36:07;;;;;;;12.90;3.60;;;20.60;99.90;;;;;;5071442;28;20032;-64
2022/09/27 12:38:47;;;;;;;15.45;4.20;;;21.10;99.90;;;;;;5071890;28;20066;-64
2022/09/27 12:41:18;;;;;;;13.20;3.78;;;21.30;99.90;;;;;;5071163;28;20032;-64
2022/09/27 12:43:47;;;;;;;17.10;3.67;;;21.40;99.90;;;;;;5074377;28;20036;-63
2022/09/27 12:46:30;;;;;;;15.77;4.07;;;21.00;99.90;;;;;;5075315;28;20028;-63
2022/09/27 12:49:17;;;;;;;17.67;4.57;;;20.70;99.90;;;;;;5075369;28;20036;-63
2022/09/27 12:51:59;;;;;;;22.10;4.68;;;20.40;99.90;;;;;;5075504;28;20470;-64
2022/09/27 12:54:27;;;;;;;20.60;4.72;;;20.50;99.90;;;;;;5074998;28;20036;-64
2022/09/27 12:57:13;;;;;;;17.15;4.47;;;20.50;99.90;;;;;;5074186;28;20029;-64
2022/09/27 13:00:11;;;;;;;19.25;4.57;;;20.40;99.90;;;;;;5075224;28;20033;-63
2022/09/27 13:02:52;;;;;;;16.90;4.22;;;20.30;99.90;;;;;;5075315;28;20025;-64
2022/09/27 13:05:33;;;;;;;15.70;3.92;;;20.50;99.90;;;;;;5075188;28;20033;-64
2022/09/27 13:08:17;;;;;;;17.58;4.03;;;20.40;99.90;;;;;;5075162;28;20115;-63
2022/09/27 13:11:04;;;;;;;16.00;4.10;;;19.80;99.90;;;;;;5074660;28;20559;-64
2022/09/27 13:13:31;;;;;;;14.45;4.25;;;20.10;99.90;;;;;;5075434;28;20035;-63